MUCL

Vilo Acuña International Airport

Cayo Largo del Sur, Cuba
MUCL 181100Z 1812/1824 09013KT 9000 SCT020 TEMPO 1812/1818 3000 SHRA FEW018CB BKN020
Issued Valid From Valid To
Oct-18 @ 11:00 UTC
(58 minutes ago)
Oct-18 @ 12:00 UTC
(in 2 minutes)
Oct-19 @ 00:00 UTC
(in 12 hours)
Oct-18 @ 12:00 to Oct-19 @ 00:00
MUCL 181100Z 1812/1824 09013KT 9000 SCT020
Wind Visibility Clouds
90° at 13 knots 8,996 meters
  • Scattered at 2,000' AGL
Temporary Oct-18 @ 12:00 to Oct-18 @ 18:00
TEMPO 1812/1818 3000 SHRA FEW018CB BKN020
Visibility Clouds Conditions
2,993 meters
  • Few at 1,800' AGL
  • Broken at 2,000' AGL
  • Rain
MUCL 181100Z 1812/1824 09013KT 9000 SCT020 TEMPO 1812/1818 3000 SHRA FEW018CB BKN020
Issued Oct-18 @ 11:00 UTC
(58 minutes ago)
Valid From Oct-18 @ 12:00 UTC
(in 2 minutes)
Valid To Oct-19 @ 00:00 UTC
(in 12 hours)
Oct-18 @ 12:00 - Oct-19 @ 00:00
Wind Visibility
90° at 13 knots 8,996 meters
Clouds
  • Scattered at 2,000' AGL
Temporary Oct-18 @ 12:00 - Oct-18 @ 18:00
Clouds
  • Few at 1,800' AGL
  • Broken at 2,000' AGL
Conditions
  • Rain